Terminal Aerodrome Forecast
Issued by NWS Cleveland, OH

Home | Current Version | Previous Version | Text Only | Print | Product List | Glossary On
Versions: 1 2 3 4 5 6 7 8 9 10 11 12 13
512
FTUS41 KCLE 281126
TAFYNG
TAF
KYNG 281126Z 2812/2912 14010G18KT P6SM SCT090 BKN250
     FM282200 08010KT P6SM SCT040 OVC080
     FM290000 08008KT P6SM VCSH SCT025 OVC040
     FM290500 08008KT P6SM VCSH SCT015 OVC025=

USA.gov is the U.S. government's official web portal to all federal, state and local government web resources and services.